createdAt,value
2023-02-22T00:02:10.578Z,63.81
2023-02-22T00:04:39.569Z,63.82
2023-02-22T00:07:07.188Z,63.45
2023-02-22T00:09:34.060Z,63.20
2023-02-22T00:12:01.252Z,63.44
2023-02-22T00:14:28.442Z,63.34
2023-02-22T00:16:59.527Z,63.73
2023-02-22T00:19:28.008Z,64.49
2023-02-22T00:21:54.882Z,65.01
2023-02-22T00:24:24.441Z,65.35
2023-02-22T00:26:55.399Z,64.95
2023-02-22T00:29:23.888Z,64.89
2023-02-22T00:31:50.798Z,64.92
2023-02-22T00:34:17.667Z,64.82
2023-02-22T00:36:49.055Z,64.85
2023-02-22T00:39:16.470Z,64.77
2023-02-22T00:41:43.660Z,65.06
2023-02-22T00:44:10.984Z,66.47
2023-02-22T00:46:38.201Z,67.93
2023-02-22T00:49:05.197Z,67.49
2023-02-22T00:51:33.813Z,67.14
2023-02-22T00:54:00.829Z,66.89
2023-02-22T00:56:27.751Z,66.71
2023-02-22T00:58:54.537Z,66.74
2023-02-22T01:01:21.385Z,65.97
2023-02-22T01:03:48.308Z,65.85
2023-02-22T01:06:15.274Z,65.59
2023-02-22T01:08:45.686Z,65.36
2023-02-22T01:11:15.571Z,65.33
2023-02-22T01:13:42.661Z,65.87
2023-02-22T01:16:09.470Z,65.90
2023-02-22T01:18:37.256Z,65.55
2023-02-22T01:21:05.768Z,65.65
2023-02-22T01:23:33.216Z,65.66
2023-02-22T01:26:00.010Z,65.68
2023-02-22T01:28:26.786Z,65.56
2023-02-22T01:30:56.220Z,65.46
2023-02-22T01:33:23.394Z,65.37
2023-02-22T01:35:51.215Z,66.21
2023-02-22T01:38:18.200Z,66.18
2023-02-22T01:40:49.694Z,66.56
2023-02-22T01:43:29.647Z,66.52
2023-02-22T01:46:03.308Z,66.35
2023-02-22T01:48:38.577Z,66.50
2023-02-22T01:51:20.108Z,66.82
2023-02-22T01:53:54.162Z,67.13
2023-02-22T01:56:23.710Z,66.98
2023-02-22T01:58:58.370Z,67.09
2023-02-22T02:01:28.326Z,67.18
2023-02-22T02:03:59.646Z,67.50
2023-02-22T02:06:31.521Z,67.01
2023-02-22T02:09:28.571Z,67.13
2023-02-22T02:11:56.120Z,67.22
2023-02-22T02:14:22.894Z,67.24
2023-02-22T02:16:53.315Z,68.06
2023-02-22T02:19:45.642Z,68.79
2023-02-22T02:22:26.976Z,68.45
2023-02-22T02:25:40.696Z,68.33
2023-02-22T02:28:25.276Z,68.16
2023-02-22T02:31:21.384Z,68.69
2023-02-22T02:34:12.075Z,68.73
2023-02-22T02:37:01.003Z,68.54
2023-02-22T02:39:51.169Z,68.02
2023-02-22T02:42:23.466Z,67.80
2023-02-22T02:45:02.612Z,67.66
2023-02-22T02:47:35.671Z,67.67
2023-02-22T02:50:09.196Z,67.31
2023-02-22T02:52:37.439Z,66.92
2023-02-22T02:55:06.996Z,66.93
2023-02-22T02:57:33.792Z,67.12
2023-02-22T03:00:00.605Z,66.77
2023-02-22T03:02:55.104Z,66.98
2023-02-22T03:05:31.815Z,67.61
2023-02-22T03:08:31.605Z,67.36
2023-02-22T03:11:17.432Z,67.08
2023-02-22T03:14:12.057Z,67.07
2023-02-22T03:17:04.613Z,67.35
2023-02-22T03:19:38.554Z,67.16
2023-02-22T03:22:16.492Z,66.58
2023-02-22T03:24:58.886Z,66.88
2023-02-22T03:27:49.108Z,66.91
2023-02-22T03:30:31.966Z,66.98
2023-02-22T03:33:12.392Z,66.96
2023-02-22T03:35:48.868Z,67.22
2023-02-22T03:38:19.068Z,66.90
2023-02-22T03:40:51.031Z,66.51
2023-02-22T03:43:25.923Z,66.78
2023-02-22T03:45:53.358Z,66.81
2023-02-22T03:48:41.710Z,66.35
2023-02-22T03:51:08.591Z,65.47
2023-02-22T03:53:37.143Z,65.69
2023-02-22T03:56:08.486Z,65.68
2023-02-22T03:58:37.713Z,65.86
2023-02-22T04:01:05.005Z,65.85
2023-02-22T04:03:31.850Z,65.71
2023-02-22T04:05:58.638Z,66.00
2023-02-22T04:08:25.447Z,66.00
2023-02-22T04:10:52.516Z,66.16
2023-02-22T04:13:19.389Z,66.05
2023-02-22T04:15:46.275Z,65.71
2023-02-22T04:18:14.066Z,65.38
2023-02-22T04:20:40.902Z,65.07
2023-02-22T04:23:07.719Z,65.14
2023-02-22T04:25:34.500Z,64.41
2023-02-22T04:28:01.322Z,64.84
2023-02-22T04:30:30.074Z,64.75
2023-02-22T04:32:57.411Z,64.23
2023-02-22T04:35:24.408Z,64.52
2023-02-22T04:37:51.286Z,65.14
2023-02-22T04:40:18.506Z,65.86
2023-02-22T04:42:45.286Z,65.61
2023-02-22T04:45:13.286Z,66.22
2023-02-22T04:47:40.235Z,66.47
2023-02-22T04:50:11.022Z,65.80
2023-02-22T04:52:37.843Z,64.81
2023-02-22T04:55:05.320Z,65.22
2023-02-22T04:57:32.508Z,64.90
2023-02-22T04:59:59.503Z,64.80
2023-02-22T05:02:26.473Z,64.74
2023-02-22T05:04:53.414Z,64.92
2023-02-22T05:07:20.216Z,65.23
2023-02-22T05:09:47.000Z,65.36
2023-02-22T05:12:13.817Z,64.71
2023-02-22T05:14:41.485Z,65.00
2023-02-22T05:17:08.282Z,65.19
2023-02-22T05:19:35.123Z,65.57
2023-02-22T05:22:01.972Z,65.99
2023-02-22T05:24:28.720Z,65.81
2023-02-22T05:26:55.529Z,65.65
2023-02-22T05:29:22.328Z,65.98
2023-02-22T05:31:49.243Z,66.25
2023-02-22T05:34:16.569Z,66.41
2023-02-22T05:36:43.373Z,64.90
2023-02-22T05:39:10.185Z,64.93
2023-02-22T05:41:36.931Z,65.03
2023-02-22T05:44:03.978Z,65.09
2023-02-22T05:46:30.906Z,65.76
2023-02-22T05:48:57.816Z,65.79
2023-02-22T05:51:24.843Z,65.40
2023-02-22T05:53:52.514Z,65.37
2023-02-22T05:56:28.641Z,65.40
2023-02-22T05:58:55.761Z,65.46
2023-02-22T06:01:23.075Z,64.36
2023-02-22T06:03:51.676Z,64.89
2023-02-22T06:06:22.652Z,64.93
2023-02-22T06:08:49.864Z,64.90
2023-02-22T06:11:17.162Z,64.62
2023-02-22T06:13:51.530Z,64.77
2023-02-22T06:16:19.500Z,64.76
2023-02-22T06:18:46.825Z,64.34
2023-02-22T06:21:13.699Z,64.48
2023-02-22T06:23:40.470Z,64.37
2023-02-22T06:26:07.318Z,64.55
2023-02-22T06:28:34.113Z,64.53
2023-02-22T06:31:00.919Z,64.75
2023-02-22T06:33:27.719Z,64.99
2023-02-22T06:35:54.521Z,64.89
2023-02-22T06:38:24.667Z,65.12
2023-02-22T06:40:52.100Z,64.99
2023-02-22T06:43:19.279Z,65.22
2023-02-22T06:45:46.555Z,65.77
2023-02-22T06:48:13.909Z,65.85
2023-02-22T06:50:40.707Z,66.52
2023-02-22T06:53:07.549Z,66.13
2023-02-22T06:55:35.613Z,66.71
2023-02-22T06:58:04.858Z,66.13
2023-02-22T07:00:32.639Z,66.60
2023-02-22T07:03:00.521Z,65.92
2023-02-22T07:05:28.504Z,66.22
2023-02-22T07:08:02.780Z,65.95
2023-02-22T07:10:31.522Z,64.93
2023-02-22T07:12:58.424Z,64.10
2023-02-22T07:15:27.775Z,63.67
2023-02-22T07:17:55.088Z,64.81
2023-02-22T07:20:24.354Z,62.89
2023-02-22T07:22:51.506Z,60.66
2023-02-22T07:25:19.649Z,58.71
2023-02-22T07:27:47.376Z,58.21
2023-02-22T07:30:25.908Z,57.25
2023-02-22T07:32:55.098Z,56.28
2023-02-22T07:35:36.583Z,55.13
2023-02-22T07:38:06.104Z,53.59
2023-02-22T07:40:32.881Z,54.48
2023-02-22T07:43:16.692Z,54.72
2023-02-22T07:45:44.467Z,55.54
2023-02-22T07:48:12.603Z,54.77
2023-02-22T07:50:40.391Z,55.11
2023-02-22T07:53:12.847Z,55.37
2023-02-22T07:55:39.691Z,55.18
2023-02-22T07:58:08.870Z,55.30
2023-02-22T08:00:40.434Z,54.25
2023-02-22T08:03:13.453Z,52.98
2023-02-22T08:05:45.514Z,53.24
2023-02-22T08:08:12.644Z,52.33
2023-02-22T08:10:39.415Z,53.11
2023-02-22T08:13:06.374Z,53.55
2023-02-22T08:15:36.490Z,52.98
2023-02-22T08:18:09.094Z,52.52
2023-02-22T08:20:37.359Z,51.16
2023-02-22T08:23:05.665Z,50.42
2023-02-22T08:25:33.034Z,50.02
2023-02-22T08:28:10.758Z,46.91
2023-02-22T08:30:40.539Z,46.99
2023-02-22T08:33:07.714Z,45.92
2023-02-22T08:35:34.772Z,46.00
2023-02-22T08:38:05.968Z,45.35
2023-02-22T08:40:37.324Z,44.47
2023-02-22T08:43:04.674Z,44.30
2023-02-22T08:45:31.524Z,43.56
2023-02-22T08:47:59.417Z,43.18
2023-02-22T08:50:32.007Z,41.32
2023-02-22T08:53:01.986Z,41.61
2023-02-22T08:55:32.895Z,42.32
2023-02-22T08:58:02.798Z,41.96
2023-02-22T09:00:33.209Z,40.35
2023-02-22T09:03:05.788Z,38.64
2023-02-22T09:05:33.510Z,38.37
2023-02-22T09:08:01.418Z,37.50
2023-02-22T09:10:32.160Z,36.82
2023-02-22T09:13:00.785Z,37.14
2023-02-22T09:15:28.590Z,36.65
2023-02-22T09:17:55.912Z,36.39
2023-02-22T09:20:24.597Z,37.25
2023-02-22T09:22:52.672Z,37.61
2023-02-22T09:25:20.974Z,36.95
2023-02-22T09:27:52.368Z,37.68
2023-02-22T09:30:31.959Z,37.33
2023-02-22T09:33:03.586Z,38.82
2023-02-22T09:35:31.026Z,38.89
2023-02-22T09:38:00.125Z,39.78
2023-02-22T09:40:30.803Z,39.26
2023-02-22T09:43:37.889Z,39.35
2023-02-22T09:46:37.698Z,40.75
2023-02-22T09:49:13.832Z,39.66
2023-02-22T09:51:52.561Z,39.72
2023-02-22T09:54:35.867Z,38.71
2023-02-22T09:57:08.634Z,37.97
2023-02-22T09:59:57.449Z,38.70
2023-02-22T10:02:31.212Z,38.33
2023-02-22T10:05:00.946Z,37.78
2023-02-22T10:07:47.482Z,37.30
2023-02-22T10:10:23.183Z,37.07
2023-02-22T10:13:22.151Z,37.24
2023-02-22T10:16:28.215Z,36.87
2023-02-22T10:19:22.418Z,35.90
2023-02-22T10:22:11.314Z,36.26
2023-02-22T10:25:27.154Z,35.75
2023-02-22T10:28:19.985Z,35.38
2023-02-22T10:30:56.430Z,35.70
2023-02-22T10:33:32.353Z,37.07
2023-02-22T10:35:59.227Z,38.12
2023-02-22T10:38:32.687Z,36.46
2023-02-22T10:41:09.207Z,35.16
2023-02-22T10:43:40.992Z,34.92
2023-02-22T10:46:13.453Z,34.85
2023-02-22T10:48:42.920Z,33.30
2023-02-22T10:51:10.455Z,33.21
2023-02-22T10:53:38.587Z,32.33
2023-02-22T10:56:21.272Z,33.27
2023-02-22T10:59:05.768Z,33.45
2023-02-22T11:01:32.585Z,33.54
2023-02-22T11:04:12.229Z,33.50
2023-02-22T11:06:42.390Z,33.55
2023-02-22T11:09:24.495Z,33.38
2023-02-22T11:12:16.802Z,33.91
2023-02-22T11:14:43.590Z,33.69
2023-02-22T11:17:17.630Z,33.85
2023-02-22T11:19:49.342Z,33.54
2023-02-22T11:22:41.368Z,32.49
2023-02-22T11:25:08.846Z,32.19
2023-02-22T11:27:47.006Z,32.40
2023-02-22T11:30:32.686Z,32.63
2023-02-22T11:33:15.901Z,31.51
2023-02-22T11:36:05.881Z,30.17
2023-02-22T11:38:36.828Z,29.86
2023-02-22T11:41:22.875Z,29.75
2023-02-22T11:43:51.754Z,29.09
2023-02-22T11:46:30.863Z,29.30
2023-02-22T11:49:17.796Z,28.33
2023-02-22T11:52:28.152Z,28.19
2023-02-22T11:55:36.364Z,28.85
2023-02-22T11:58:33.324Z,28.43
2023-02-22T12:01:07.784Z,29.46
2023-02-22T12:04:22.447Z,29.89
2023-02-22T12:07:21.758Z,30.43
2023-02-22T12:10:18.271Z,31.28
2023-02-22T12:13:19.446Z,31.95
2023-02-22T12:16:32.623Z,31.96
2023-02-22T12:19:11.448Z,31.73
2023-02-22T12:21:43.772Z,31.92
2023-02-22T12:24:17.091Z,30.54
2023-02-22T12:26:50.681Z,30.32
2023-02-22T12:30:07.201Z,29.12
2023-02-22T12:32:47.469Z,28.76
2023-02-22T12:35:28.570Z,28.41
2023-02-22T12:38:13.038Z,27.72
2023-02-22T12:41:29.775Z,29.07
2023-02-22T12:44:14.618Z,30.29
2023-02-22T12:46:47.917Z,29.00
2023-02-22T12:49:38.641Z,28.19
2023-02-22T12:52:43.150Z,27.76
2023-02-22T12:55:17.027Z,26.02
2023-02-22T12:57:57.125Z,25.19
2023-02-22T13:00:37.946Z,24.06
2023-02-22T13:03:39.557Z,23.03
2023-02-22T13:06:49.557Z,22.97
2023-02-22T13:09:39.625Z,22.72
2023-02-22T13:13:04.682Z,24.16
2023-02-22T13:15:52.836Z,25.70
2023-02-22T13:18:42.639Z,24.92
2023-02-22T13:21:37.037Z,21.92
2023-02-22T13:24:18.532Z,20.95
2023-02-22T13:27:00.115Z,21.27
2023-02-22T13:29:34.666Z,22.01
2023-02-22T13:32:28.514Z,22.72
2023-02-22T13:35:48.885Z,24.37
2023-02-22T13:38:57.952Z,24.07
2023-02-22T13:41:48.266Z,23.98
2023-02-22T13:44:52.294Z,24.77
2023-02-22T13:47:50.023Z,25.38
2023-02-22T13:50:49.697Z,24.82
2023-02-22T13:53:28.397Z,23.69
2023-02-22T13:55:59.322Z,22.81
2023-02-22T13:58:26.671Z,22.38
2023-02-22T14:00:55.605Z,21.99
2023-02-22T14:03:23.986Z,21.52
2023-02-22T14:05:53.821Z,21.00
2023-02-22T14:08:21.705Z,20.80
2023-02-22T14:11:00.573Z,21.70
2023-02-22T14:13:33.358Z,22.49
2023-02-22T14:16:00.194Z,24.08
2023-02-22T14:18:41.734Z,25.42
2023-02-22T14:21:12.536Z,26.28
2023-02-22T14:23:43.537Z,27.19
2023-02-22T14:26:22.806Z,28.63
2023-02-22T14:29:10.352Z,29.32
2023-02-22T14:31:43.421Z,30.04
2023-02-22T14:34:34.914Z,31.32
2023-02-22T14:37:19.899Z,31.28
2023-02-22T14:39:52.734Z,30.72
2023-02-22T14:42:28.251Z,29.27
2023-02-22T14:45:20.008Z,28.37
2023-02-22T14:48:27.980Z,27.55
2023-02-22T14:51:11.764Z,28.83
2023-02-22T14:53:57.428Z,29.59
2023-02-22T14:56:39.465Z,30.54
2023-02-22T14:59:24.053Z,31.21
2023-02-22T15:02:12.783Z,31.51
2023-02-22T15:04:43.771Z,32.29
2023-02-22T15:07:29.103Z,33.25
2023-02-22T15:10:23.869Z,34.19
2023-02-22T15:13:11.380Z,34.84
2023-02-22T15:15:54.901Z,34.45
2023-02-22T15:18:30.094Z,34.76
2023-02-22T15:21:06.932Z,35.99
2023-02-22T15:23:54.210Z,36.07
2023-02-22T15:26:31.105Z,35.39
2023-02-22T15:28:59.753Z,34.08
2023-02-22T15:31:39.758Z,34.04
2023-02-22T15:34:18.978Z,34.58
2023-02-22T15:36:51.200Z,35.18
2023-02-22T15:39:29.722Z,35.85
2023-02-22T15:42:20.872Z,36.01
2023-02-22T15:44:52.344Z,36.71
2023-02-22T15:47:18.989Z,36.91
2023-02-22T15:49:46.773Z,37.04
2023-02-22T15:52:31.834Z,37.25
2023-02-22T15:54:58.669Z,37.67
2023-02-22T15:57:27.363Z,37.71
2023-02-22T15:59:57.259Z,38.05
2023-02-22T16:02:37.298Z,38.33
2023-02-22T16:05:09.909Z,39.09
2023-02-22T16:07:50.506Z,39.08
2023-02-22T16:10:33.454Z,39.57
2023-02-22T16:13:31.484Z,40.42
2023-02-22T16:16:05.919Z,41.23
2023-02-22T16:18:36.078Z,41.34
2023-02-22T16:21:13.917Z,41.72
2023-02-22T16:24:10.289Z,41.20
2023-02-22T16:26:41.309Z,41.54
2023-02-22T16:29:09.586Z,42.12
2023-02-22T16:31:39.995Z,44.62
2023-02-22T16:34:08.420Z,44.53
2023-02-22T16:36:45.026Z,44.85
2023-02-22T16:39:21.322Z,44.93
2023-02-22T16:41:48.612Z,45.14
2023-02-22T16:44:16.886Z,45.24
2023-02-22T16:46:44.051Z,45.98
2023-02-22T16:49:12.499Z,46.28
2023-02-22T16:51:49.908Z,46.33
2023-02-22T16:54:28.431Z,46.73
2023-02-22T16:56:57.072Z,47.69
2023-02-22T16:59:23.922Z,48.00
2023-02-22T17:01:50.748Z,48.07
2023-02-22T17:04:24.141Z,48.80
2023-02-22T17:06:51.437Z,49.37
2023-02-22T17:09:22.140Z,49.54
2023-02-22T17:11:51.544Z,50.05
2023-02-22T17:14:23.207Z,49.89
2023-02-22T17:16:53.384Z,50.20
2023-02-22T17:19:24.352Z,50.60
2023-02-22T17:21:51.176Z,50.97
2023-02-22T17:24:22.938Z,51.29
2023-02-22T17:26:53.031Z,51.36
2023-02-22T17:29:20.616Z,51.90
2023-02-22T17:31:48.881Z,51.78
2023-02-22T17:34:15.895Z,52.02
2023-02-22T17:36:43.100Z,52.62
2023-02-22T17:39:10.551Z,52.57
2023-02-22T17:41:40.348Z,52.64
2023-02-22T17:44:07.733Z,53.07
2023-02-22T17:46:36.637Z,52.88
2023-02-22T17:49:03.542Z,52.82
2023-02-22T17:51:30.401Z,52.95
2023-02-22T17:53:57.396Z,53.18
2023-02-22T17:56:24.499Z,53.39
2023-02-22T17:58:54.898Z,53.74
2023-02-22T18:01:29.363Z,53.91
2023-02-22T18:04:02.705Z,54.14
2023-02-22T18:06:32.549Z,54.23
2023-02-22T18:09:00.907Z,54.47
2023-02-22T18:11:32.394Z,55.02
2023-02-22T18:13:59.358Z,55.31
2023-02-22T18:16:26.813Z,55.62
2023-02-22T18:18:56.841Z,55.49
2023-02-22T18:21:24.144Z,55.86
2023-02-22T18:23:50.970Z,55.53
2023-02-22T18:26:21.697Z,56.18
2023-02-22T18:28:49.169Z,56.48
2023-02-22T18:31:19.475Z,56.50
2023-02-22T18:33:49.952Z,56.60
2023-02-22T18:36:22.542Z,56.81
2023-02-22T18:38:52.816Z,56.39
2023-02-22T18:41:25.199Z,56.75
2023-02-22T18:43:55.035Z,57.27
2023-02-22T18:46:23.818Z,57.33
2023-02-22T18:48:55.045Z,57.01
2023-02-22T18:51:23.216Z,57.14
2023-02-22T18:53:54.736Z,57.49
2023-02-22T18:56:22.222Z,58.18
2023-02-22T18:58:58.640Z,59.09
2023-02-22T19:01:25.891Z,58.31
2023-02-22T19:03:53.237Z,58.64
2023-02-22T19:06:22.488Z,58.76
2023-02-22T19:08:50.754Z,58.62
2023-02-22T19:11:22.141Z,58.51
2023-02-22T19:13:52.102Z,58.71
2023-02-22T19:16:21.753Z,58.75
2023-02-22T19:18:52.322Z,58.67
2023-02-22T19:21:20.310Z,58.48
2023-02-22T19:23:48.288Z,58.72
2023-02-22T19:26:23.891Z,58.72
2023-02-22T19:28:53.438Z,58.97
2023-02-22T19:31:22.512Z,58.98
2023-02-22T19:33:52.507Z,58.96
2023-02-22T19:36:23.014Z,59.06
2023-02-22T19:38:50.038Z,59.19
2023-02-22T19:41:21.768Z,59.07
2023-02-22T19:43:51.485Z,59.33
2023-02-22T19:46:18.884Z,59.63
2023-02-22T19:48:45.744Z,59.38
2023-02-22T19:51:16.750Z,60.26
2023-02-22T19:53:45.045Z,60.70
2023-02-22T19:56:18.072Z,60.95
2023-02-22T19:58:48.262Z,60.94
2023-02-22T20:01:29.031Z,60.19
2023-02-22T20:04:08.317Z,60.06
2023-02-22T20:06:42.278Z,59.60
2023-02-22T20:09:14.239Z,59.46
2023-02-22T20:11:41.079Z,59.05
2023-02-22T20:14:07.942Z,59.59
2023-02-22T20:16:35.509Z,60.30
2023-02-22T20:19:02.361Z,60.63
2023-02-22T20:21:34.625Z,60.44
2023-02-22T20:24:06.683Z,60.89
2023-02-22T20:26:36.639Z,61.15
2023-02-22T20:29:06.142Z,61.89
2023-02-22T20:31:33.341Z,61.79
2023-02-22T20:34:02.339Z,62.36
2023-02-22T20:36:30.423Z,62.44
2023-02-22T20:38:59.929Z,62.47
2023-02-22T20:41:32.747Z,62.45
2023-02-22T20:44:01.711Z,62.47
2023-02-22T20:46:35.549Z,62.28
2023-02-22T20:49:07.193Z,62.24
2023-02-22T20:51:34.988Z,62.69
2023-02-22T20:54:02.004Z,62.10
2023-02-22T20:56:32.272Z,61.98
2023-02-22T20:59:01.976Z,62.68
2023-02-22T21:01:30.022Z,62.44
2023-02-22T21:04:06.222Z,62.17
2023-02-22T21:06:35.548Z,62.58
2023-02-22T21:09:07.155Z,62.95
2023-02-22T21:11:35.142Z,62.52
2023-02-22T21:14:02.432Z,62.25
2023-02-22T21:16:33.532Z,62.61
2023-02-22T21:19:04.103Z,62.80
2023-02-22T21:21:31.862Z,62.80
2023-02-22T21:24:01.557Z,62.01
2023-02-22T21:26:31.595Z,61.88
2023-02-22T21:29:01.149Z,61.80
2023-02-22T21:31:28.770Z,61.29
2023-02-22T21:33:58.667Z,61.37
2023-02-22T21:36:26.658Z,62.23
2023-02-22T21:38:57.708Z,62.79
2023-02-22T21:41:31.336Z,63.06
2023-02-22T21:43:59.864Z,63.08
2023-02-22T21:46:29.132Z,63.10
2023-02-22T21:48:58.372Z,62.46
2023-02-22T21:51:31.325Z,62.45
2023-02-22T21:54:04.734Z,62.53
2023-02-22T21:56:36.371Z,62.37
2023-02-22T21:59:18.750Z,62.05
2023-02-22T22:01:49.908Z,59.95
2023-02-22T22:04:23.848Z,59.01
2023-02-22T22:06:53.282Z,58.59
2023-02-22T22:09:23.290Z,59.96
2023-02-22T22:12:01.209Z,60.70
2023-02-22T22:14:28.293Z,62.70
2023-02-22T22:16:58.546Z,62.17
2023-02-22T22:19:30.272Z,62.36
2023-02-22T22:22:00.799Z,62.55
2023-02-22T22:24:31.948Z,63.02
2023-02-22T22:27:03.540Z,62.87
2023-02-22T22:29:34.151Z,62.48
2023-02-22T22:32:01.361Z,62.86
2023-02-22T22:34:29.535Z,62.68
2023-02-22T22:36:58.086Z,62.04
2023-02-22T22:39:26.753Z,62.17
2023-02-22T22:41:53.668Z,61.61
2023-02-22T22:44:22.297Z,61.38
2023-02-22T22:46:53.440Z,61.69
2023-02-22T22:49:20.542Z,61.46
2023-02-22T22:51:47.468Z,61.27
2023-02-22T22:54:14.658Z,61.77
2023-02-22T22:56:41.612Z,62.59
2023-02-22T22:59:10.594Z,63.12
2023-02-22T23:01:44.188Z,62.16
2023-02-22T23:04:16.806Z,62.66
2023-02-22T23:06:51.890Z,61.83
2023-02-22T23:09:22.157Z,61.64
2023-02-22T23:12:01.876Z,61.13
2023-02-22T23:14:31.049Z,61.38
2023-02-22T23:17:05.681Z,61.42
2023-02-22T23:19:35.199Z,61.16
2023-02-22T23:22:05.407Z,60.55
2023-02-22T23:24:37.645Z,60.23
2023-02-22T23:27:10.693Z,60.36
2023-02-22T23:29:40.816Z,59.93
2023-02-22T23:32:09.689Z,59.71
2023-02-22T23:34:38.504Z,59.79
2023-02-22T23:37:09.749Z,60.20
2023-02-22T23:39:37.004Z,60.74
2023-02-22T23:42:03.901Z,60.92
2023-02-22T23:44:30.881Z,60.94
2023-02-22T23:46:57.842Z,61.85
2023-02-22T23:49:35.872Z,61.35
2023-02-22T23:52:05.072Z,61.12
2023-02-22T23:54:36.339Z,60.70
2023-02-22T23:57:04.582Z,61.23
2023-02-22T23:59:33.155Z,60.98
